createdAt,value
2022-10-09T00:02:40.844Z,10.57
2022-10-09T00:05:45.571Z,10.62
2022-10-09T00:08:50.499Z,10.64
2022-10-09T00:12:01.732Z,10.66
2022-10-09T00:15:04.792Z,10.61
2022-10-09T00:18:10.287Z,10.61
2022-10-09T00:21:31.484Z,10.61
2022-10-09T00:24:34.760Z,10.64
2022-10-09T00:27:37.410Z,10.62
2022-10-09T00:30:40.557Z,10.57
2022-10-09T00:33:44.403Z,10.57
2022-10-09T00:36:47.841Z,10.56
2022-10-09T00:39:50.660Z,10.58
2022-10-09T00:43:02.700Z,10.62
2022-10-09T00:46:06.079Z,10.58
2022-10-09T00:49:32.111Z,10.61
2022-10-09T00:52:36.808Z,10.69
2022-10-09T00:55:41.218Z,10.68
2022-10-09T00:58:43.982Z,10.68
2022-10-09T01:01:47.729Z,10.62
2022-10-09T01:04:53.564Z,10.58
2022-10-09T01:08:08.324Z,10.58
2022-10-09T01:11:44.856Z,10.51
2022-10-09T01:15:03.621Z,10.51
2022-10-09T01:18:18.372Z,10.45
2022-10-09T01:21:30.338Z,10.36
2022-10-09T01:25:02.031Z,10.42
2022-10-09T01:28:07.886Z,10.40
2022-10-09T01:31:13.180Z,10.32
2022-10-09T01:34:19.183Z,10.23
2022-10-09T01:37:22.970Z,10.28
2022-10-09T01:40:27.138Z,10.33
2022-10-09T01:43:30.111Z,10.33
2022-10-09T01:46:33.669Z,10.22
2022-10-09T01:50:01.180Z,10.22
2022-10-09T01:53:07.867Z,10.26
2022-10-09T01:56:14.785Z,10.23
2022-10-09T01:59:22.315Z,10.18
2022-10-09T02:02:26.845Z,10.16
2022-10-09T02:05:32.089Z,10.16
2022-10-09T02:08:37.520Z,10.12
2022-10-09T02:11:46.495Z,10.06
2022-10-09T02:14:51.461Z,10.03
2022-10-09T02:18:00.549Z,9.96
2022-10-09T02:21:10.715Z,10.00
2022-10-09T02:24:22.360Z,10.03
2022-10-09T02:27:27.515Z,10.03
2022-10-09T02:30:47.460Z,9.93
2022-10-09T02:33:58.120Z,9.91
2022-10-09T02:37:01.453Z,9.93
2022-10-09T02:40:09.749Z,9.87
2022-10-09T02:43:13.521Z,9.87
2022-10-09T02:46:16.971Z,9.88
2022-10-09T02:49:20.507Z,9.88
2022-10-09T02:52:22.971Z,9.90
2022-10-09T02:55:27.181Z,9.89
2022-10-09T02:58:31.348Z,9.80
2022-10-09T03:01:34.827Z,9.75
2022-10-09T03:04:37.365Z,9.65
2022-10-09T03:07:40.846Z,9.66
2022-10-09T03:10:43.796Z,9.71
2022-10-09T03:13:47.503Z,9.64
2022-10-09T03:16:51.118Z,9.66
2022-10-09T03:19:59.543Z,9.66
2022-10-09T03:23:06.511Z,9.65
2022-10-09T03:26:15.413Z,9.62
2022-10-09T03:29:18.706Z,9.63
2022-10-09T03:32:22.983Z,9.62
2022-10-09T03:35:28.832Z,9.69
2022-10-09T03:38:39.525Z,9.66
2022-10-09T03:41:45.214Z,9.68
2022-10-09T03:44:55.761Z,9.70
2022-10-09T03:47:59.896Z,9.69
2022-10-09T03:51:03.980Z,9.71
2022-10-09T03:54:06.797Z,9.64
2022-10-09T03:57:11.807Z,9.62
2022-10-09T04:00:15.453Z,9.62
2022-10-09T04:03:20.309Z,9.64
2022-10-09T04:06:23.575Z,9.60
2022-10-09T04:09:27.136Z,9.60
2022-10-09T04:12:31.842Z,9.63
2022-10-09T04:15:37.739Z,9.62
2022-10-09T04:18:46.683Z,9.75
2022-10-09T04:21:50.723Z,9.74
2022-10-09T04:24:54.973Z,9.82
2022-10-09T04:28:01.209Z,10.01
2022-10-09T04:31:04.400Z,10.08
2022-10-09T04:34:07.613Z,10.22
2022-10-09T04:37:10.368Z,10.41
2022-10-09T04:40:14.113Z,10.59
2022-10-09T04:43:16.794Z,10.66
2022-10-09T04:46:20.412Z,10.88
2022-10-09T04:49:25.816Z,11.12
2022-10-09T04:52:30.566Z,11.28
2022-10-09T04:55:37.328Z,11.47
2022-10-09T04:58:41.724Z,11.57
2022-10-09T05:01:45.855Z,11.68
2022-10-09T05:04:58.554Z,11.72
2022-10-09T05:08:03.510Z,11.81
2022-10-09T05:11:09.237Z,11.98
2022-10-09T05:14:15.454Z,12.14
2022-10-09T05:17:23.243Z,12.30
2022-10-09T05:20:33.580Z,12.46
2022-10-09T05:23:38.465Z,12.63
2022-10-09T05:26:41.905Z,12.84
2022-10-09T05:29:48.722Z,12.94
2022-10-09T05:32:55.096Z,13.07
2022-10-09T05:36:02.459Z,13.15
2022-10-09T05:39:12.267Z,13.20
2022-10-09T05:42:16.402Z,13.23
2022-10-09T05:58:37.552Z,13.58
2022-10-09T06:05:34.911Z,13.72
2022-10-09T06:08:39.640Z,13.74
2022-10-09T06:11:45.649Z,13.78
2022-10-09T06:14:52.123Z,13.80
2022-10-09T06:17:57.990Z,13.81
2022-10-09T06:21:15.663Z,13.82
2022-10-09T06:24:29.041Z,13.82
2022-10-09T06:27:41.633Z,13.83
2022-10-09T06:30:52.733Z,13.87
2022-10-09T06:33:57.732Z,13.89
2022-10-09T06:37:11.383Z,13.99
2022-10-09T06:40:15.399Z,14.25
2022-10-09T06:43:24.925Z,15.17
2022-10-09T06:46:40.454Z,16.46
2022-10-09T06:49:51.774Z,17.73
2022-10-09T06:52:56.514Z,18.46
2022-10-09T06:56:00.646Z,19.44
2022-10-09T06:59:12.411Z,20.26
2022-10-09T07:02:16.990Z,20.81
2022-10-09T07:05:21.437Z,21.15
2022-10-09T07:08:34.410Z,21.56
2022-10-09T07:11:43.300Z,21.61
2022-10-09T07:14:47.552Z,21.78
2022-10-09T07:17:52.016Z,22.05
2022-10-09T07:20:56.498Z,22.25
2022-10-09T07:24:04.033Z,22.33
2022-10-09T07:27:15.439Z,22.58
2022-10-09T07:30:33.305Z,22.87
2022-10-09T07:33:41.673Z,22.82
2022-10-09T07:36:45.075Z,23.12
2022-10-09T07:39:48.653Z,23.04
2022-10-09T07:42:55.585Z,22.51
2022-10-09T07:46:16.428Z,22.86
2022-10-09T07:49:20.418Z,22.87
2022-10-09T07:52:31.548Z,22.88
2022-10-09T07:55:48.673Z,23.25
2022-10-09T07:58:55.143Z,23.49
2022-10-09T08:01:59.715Z,23.47
2022-10-09T08:05:03.623Z,23.76
2022-10-09T08:08:18.392Z,24.17
2022-10-09T08:11:30.878Z,24.19
2022-10-09T08:14:37.992Z,22.52
2022-10-09T08:17:54.416Z,22.08
2022-10-09T08:21:02.022Z,22.20
2022-10-09T08:24:18.314Z,21.57
2022-10-09T08:27:29.323Z,21.63
2022-10-09T08:30:43.493Z,22.83
2022-10-09T08:33:48.389Z,22.95
2022-10-09T08:36:54.038Z,22.24
2022-10-09T08:39:59.067Z,22.01
2022-10-09T08:43:07.164Z,21.54
2022-10-09T08:46:28.427Z,22.01
2022-10-09T08:49:46.373Z,21.91
2022-10-09T08:53:21.126Z,21.62
2022-10-09T08:56:27.781Z,22.46
2022-10-09T08:59:33.456Z,22.92
2022-10-09T09:03:03.657Z,22.29
2022-10-09T09:06:23.717Z,22.09
2022-10-09T09:10:13.927Z,21.61
2022-10-09T09:13:38.643Z,21.64
2022-10-09T09:17:11.610Z,21.56
2022-10-09T09:20:26.819Z,21.54
2022-10-09T09:23:37.632Z,21.96
2022-10-09T09:26:43.565Z,22.52
2022-10-09T09:30:16.397Z,23.04
2022-10-09T09:33:38.087Z,23.64
2022-10-09T09:37:12.303Z,23.76
2022-10-09T09:40:36.293Z,23.05
2022-10-09T09:43:43.102Z,24.05
2022-10-09T09:46:50.524Z,23.76
2022-10-09T09:49:59.172Z,23.02
2022-10-09T09:53:44.510Z,23.88
2022-10-09T10:00:27.040Z,21.90
2022-10-09T10:03:31.365Z,22.12
2022-10-09T10:06:45.710Z,22.44
2022-10-09T10:10:05.440Z,22.30
2022-10-09T10:13:42.390Z,21.47
2022-10-09T10:16:51.255Z,22.01
2022-10-09T10:19:56.003Z,23.03
2022-10-09T10:23:42.739Z,21.73
2022-10-09T10:27:20.483Z,20.77
2022-10-09T10:30:37.295Z,20.71
2022-10-09T10:33:49.871Z,21.01
2022-10-09T10:37:08.396Z,21.89
2022-10-09T10:40:24.592Z,22.22
2022-10-09T10:43:46.306Z,22.04
2022-10-09T10:47:00.154Z,21.51
2022-10-09T10:50:14.453Z,20.56
2022-10-09T10:53:37.943Z,20.26
2022-10-09T10:56:57.703Z,20.40
2022-10-09T11:00:08.655Z,20.39
2022-10-09T11:03:57.455Z,20.78
2022-10-09T11:07:31.720Z,20.61
2022-10-09T11:10:45.390Z,20.78
2022-10-09T11:14:10.450Z,20.31
2022-10-09T11:17:29.870Z,20.04
2022-10-09T11:20:49.664Z,20.19
2022-10-09T11:24:18.359Z,20.20
2022-10-09T11:27:40.449Z,20.13
2022-10-09T11:30:55.415Z,20.03
2022-10-09T11:34:12.719Z,20.24
2022-10-09T11:37:35.093Z,20.12
2022-10-09T11:40:49.350Z,20.13
2022-10-09T11:44:38.648Z,20.22
2022-10-09T11:47:56.475Z,20.27
2022-10-09T11:51:12.178Z,20.33
2022-10-09T11:54:26.055Z,20.36
2022-10-09T11:57:41.424Z,20.21
2022-10-09T12:00:53.935Z,20.04
2022-10-09T12:04:12.372Z,19.90
2022-10-09T12:07:33.763Z,19.88
2022-10-09T12:10:58.661Z,19.90
2022-10-09T12:14:19.580Z,19.84
2022-10-09T12:17:29.539Z,19.73
2022-10-09T12:20:44.171Z,19.87
2022-10-09T12:23:51.843Z,19.73
2022-10-09T12:27:00.690Z,19.70
2022-10-09T12:30:13.730Z,19.69
2022-10-09T12:33:37.259Z,19.60
2022-10-09T12:36:42.905Z,19.73
2022-10-09T12:39:58.420Z,19.61
2022-10-09T12:43:08.220Z,19.64
2022-10-09T12:46:11.720Z,19.65
2022-10-09T12:49:28.707Z,19.80
2022-10-09T12:52:52.745Z,19.88
2022-10-09T12:56:11.032Z,19.85
2022-10-09T12:59:16.658Z,19.80
2022-10-09T13:02:22.822Z,19.75
2022-10-09T13:05:39.257Z,19.87
2022-10-09T13:08:54.477Z,19.90
2022-10-09T13:12:09.332Z,19.74
2022-10-09T13:15:36.570Z,19.69
2022-10-09T13:19:27.799Z,19.76
2022-10-09T13:22:35.741Z,19.91
2022-10-09T13:25:44.810Z,19.62
2022-10-09T13:28:50.007Z,19.53
2022-10-09T13:31:56.459Z,19.53
2022-10-09T13:35:06.373Z,19.45
2022-10-09T13:38:19.488Z,19.39
2022-10-09T13:41:25.792Z,19.19
2022-10-09T13:44:37.628Z,19.11
2022-10-09T13:47:46.706Z,19.03
2022-10-09T13:50:52.595Z,18.99
2022-10-09T13:54:02.592Z,18.92
2022-10-09T13:57:19.435Z,18.85
2022-10-09T14:00:30.589Z,18.82
2022-10-09T14:03:36.205Z,18.84
2022-10-09T14:06:44.654Z,18.86
2022-10-09T14:09:48.374Z,18.90
2022-10-09T14:12:52.215Z,18.89
2022-10-09T14:15:56.671Z,18.90
2022-10-09T14:19:07.083Z,18.87
2022-10-09T14:22:16.627Z,18.82
2022-10-09T14:25:27.653Z,18.81
2022-10-09T14:28:31.381Z,18.80
2022-10-09T14:31:36.709Z,18.76
2022-10-09T14:34:53.966Z,18.63
2022-10-09T14:37:57.575Z,18.60
2022-10-09T14:41:13.535Z,18.51
2022-10-09T14:44:27.317Z,18.49
2022-10-09T14:47:31.655Z,18.38
2022-10-09T14:50:40.034Z,18.41
2022-10-09T14:53:44.314Z,18.35
2022-10-09T14:56:48.605Z,18.35
2022-10-09T14:59:52.433Z,18.31
2022-10-09T15:02:59.588Z,18.20
2022-10-09T15:06:06.699Z,18.09
2022-10-09T15:09:18.437Z,17.99
2022-10-09T15:12:37.373Z,17.94
2022-10-09T15:15:41.475Z,17.87
2022-10-09T15:18:47.641Z,17.84
2022-10-09T15:21:50.858Z,17.75
2022-10-09T15:24:54.332Z,17.66
2022-10-09T15:28:09.586Z,17.56
2022-10-09T15:31:38.311Z,17.46
2022-10-09T15:34:42.155Z,17.35
2022-10-09T15:37:46.337Z,17.22
2022-10-09T15:41:04.609Z,17.10
2022-10-09T15:44:29.509Z,17.02
2022-10-09T15:47:50.926Z,16.90
2022-10-09T15:50:57.455Z,16.76
2022-10-09T15:54:02.453Z,16.61
2022-10-09T15:57:06.385Z,16.50
2022-10-09T16:00:13.601Z,16.38
2022-10-09T16:03:19.243Z,16.26
2022-10-09T16:06:26.460Z,16.16
2022-10-09T16:09:36.734Z,16.08
2022-10-09T16:12:43.827Z,16.00
2022-10-09T16:15:57.929Z,15.82
2022-10-09T16:19:15.448Z,15.70
2022-10-09T16:22:23.778Z,15.64
2022-10-09T16:25:30.657Z,15.74
2022-10-09T16:28:40.439Z,15.81
2022-10-09T16:31:45.615Z,15.72
2022-10-09T16:34:50.232Z,15.62
2022-10-09T16:37:56.394Z,15.53
2022-10-09T16:41:02.291Z,15.44
2022-10-09T16:44:13.447Z,15.34
2022-10-09T16:56:44.707Z,15.08
2022-10-09T16:59:53.121Z,14.91
2022-10-09T17:03:00.112Z,14.82
2022-10-09T17:06:30.634Z,14.72
2022-10-09T17:09:50.467Z,14.66
2022-10-09T17:13:09.380Z,14.65
2022-10-09T17:16:22.523Z,14.55
2022-10-09T17:19:27.414Z,14.55
2022-10-09T17:23:25.529Z,14.58
2022-10-09T17:26:38.442Z,14.64
2022-10-09T17:29:46.048Z,14.55
2022-10-09T17:32:59.616Z,14.53
2022-10-09T17:36:12.684Z,14.49
2022-10-09T17:39:29.391Z,14.44
2022-10-09T17:42:42.436Z,14.35
2022-10-09T17:45:48.419Z,14.33
2022-10-09T17:48:56.163Z,14.23
2022-10-09T17:52:09.590Z,14.13
2022-10-09T17:55:25.833Z,14.10
2022-10-09T17:58:32.073Z,13.98
2022-10-09T18:01:43.550Z,13.92
2022-10-09T18:04:48.878Z,13.98
2022-10-09T18:08:01.776Z,13.92
2022-10-09T18:11:29.403Z,13.87
2022-10-09T18:14:36.575Z,13.79
2022-10-09T18:17:40.035Z,13.73
2022-10-09T18:20:43.241Z,13.74
2022-10-09T18:23:58.409Z,13.71
2022-10-09T18:27:15.683Z,13.64
2022-10-09T18:30:47.333Z,13.53
2022-10-09T18:34:01.721Z,13.49
2022-10-09T18:37:11.989Z,13.43
2022-10-09T18:40:20.686Z,13.35
2022-10-09T18:43:34.599Z,13.32
2022-10-09T18:47:04.428Z,13.32
2022-10-09T18:50:17.465Z,13.30
2022-10-09T18:53:30.341Z,13.24
2022-10-09T18:56:49.535Z,13.16
2022-10-09T19:00:07.001Z,13.08
2022-10-09T19:03:20.062Z,13.02
2022-10-09T19:06:34.558Z,12.97
2022-10-09T19:09:42.059Z,12.88
2022-10-09T19:12:59.673Z,12.83
2022-10-09T19:16:20.556Z,12.73
2022-10-09T19:19:34.372Z,12.75
2022-10-09T19:22:46.685Z,12.86
2022-10-09T19:26:05.554Z,12.90
2022-10-09T19:29:16.526Z,12.94
2022-10-09T19:32:24.036Z,13.03
2022-10-09T19:35:36.014Z,13.06
2022-10-09T19:38:59.602Z,13.12
2022-10-09T19:42:13.796Z,13.13
2022-10-09T19:45:17.519Z,13.15
2022-10-09T19:48:24.699Z,13.10
2022-10-09T19:51:28.522Z,13.06
2022-10-09T19:54:38.073Z,12.98
2022-10-09T19:57:44.200Z,12.92
2022-10-09T20:00:47.500Z,12.89
2022-10-09T20:03:56.507Z,12.83
2022-10-09T20:07:01.846Z,12.80
2022-10-09T20:10:09.681Z,12.77
2022-10-09T20:13:14.427Z,12.68
2022-10-09T20:16:32.255Z,12.62
2022-10-09T20:19:42.285Z,12.59
2022-10-09T20:22:49.022Z,12.49
2022-10-09T20:26:12.413Z,12.37
2022-10-09T20:29:17.082Z,12.27
2022-10-09T20:32:26.876Z,12.16
2022-10-09T20:35:30.687Z,12.12
2022-10-09T20:38:35.580Z,12.06
2022-10-09T20:41:41.540Z,12.05
2022-10-09T20:44:48.046Z,12.05
2022-10-09T20:47:52.243Z,12.01
2022-10-09T20:50:55.109Z,11.95
2022-10-09T20:54:00.307Z,11.96
2022-10-09T20:57:09.951Z,11.87
2022-10-09T21:00:13.591Z,11.83
2022-10-09T21:03:16.388Z,11.76
2022-10-09T21:06:21.673Z,11.74
2022-10-09T21:09:33.264Z,11.70
2022-10-09T21:12:41.632Z,11.68
2022-10-09T21:15:45.913Z,11.62
2022-10-09T21:19:00.431Z,11.60
2022-10-09T21:22:03.681Z,11.61
2022-10-09T21:25:07.011Z,11.59
2022-10-09T21:28:09.768Z,11.58
2022-10-09T21:31:19.323Z,11.58
2022-10-09T21:34:24.685Z,11.55
2022-10-09T21:37:35.551Z,11.52
2022-10-09T21:40:41.242Z,11.49
2022-10-09T21:43:45.679Z,11.45
2022-10-09T21:46:48.403Z,11.47
2022-10-09T21:49:55.220Z,11.43
2022-10-09T21:53:02.272Z,11.40
2022-10-09T21:56:13.518Z,11.34
2022-10-09T21:59:16.527Z,11.36
2022-10-09T22:02:19.563Z,11.29
2022-10-09T22:05:23.084Z,11.27
2022-10-09T22:08:26.601Z,11.25
2022-10-09T22:11:36.873Z,11.21
2022-10-09T22:14:39.554Z,11.16
2022-10-09T22:17:45.820Z,11.11
2022-10-09T22:20:50.072Z,11.05
2022-10-09T22:23:53.047Z,11.02
2022-10-09T22:26:57.301Z,10.99
2022-10-09T22:30:01.933Z,10.92
2022-10-09T22:33:06.349Z,10.93
2022-10-09T22:36:11.219Z,10.90
2022-10-09T22:39:14.863Z,10.87
2022-10-09T22:42:18.465Z,10.84
2022-10-09T22:45:21.000Z,10.79
2022-10-09T22:48:26.487Z,10.69
2022-10-09T22:51:30.593Z,10.62
2022-10-09T22:54:34.673Z,10.53
2022-10-09T22:57:37.859Z,10.45
2022-10-09T23:00:40.884Z,10.32
2022-10-09T23:03:44.677Z,10.18
2022-10-09T23:06:51.333Z,10.10
2022-10-09T23:09:54.234Z,10.04
2022-10-09T23:12:57.142Z,9.99
2022-10-09T23:16:01.743Z,9.93
2022-10-09T23:19:07.048Z,9.91
2022-10-09T23:22:10.864Z,9.84
2022-10-09T23:25:13.687Z,9.77
2022-10-09T23:28:17.120Z,9.74
2022-10-09T23:31:20.168Z,9.70
2022-10-09T23:34:23.073Z,9.65
2022-10-09T23:37:27.222Z,9.58
2022-10-09T23:40:34.626Z,9.50
2022-10-09T23:43:41.420Z,9.47
2022-10-09T23:46:44.262Z,9.40
2022-10-09T23:49:47.120Z,9.39
2022-10-09T23:52:51.033Z,9.39
2022-10-09T23:55:54.609Z,9.40
2022-10-09T23:59:00.531Z,9.33
